Aviation Digital Data Service (ADDS)

Output produced by METARs form (0306 UTC 22 April 2019)
found at http://www.aviationweather.gov/metar/data/
 
Forecast for: DFOO (BOBO-DIOULASSO , BF)
Text: TAF DFOO 212300Z 2200/2224 20008KT CAVOK
Forecast period: 0000 UTC 22 April 2019 to 0000 UTC 23 April 2019
Forecast type: FROM: standard forecast or significant change
Winds: from the SSW (200 degrees) at 9 MPH (8 knots; 4.1 m/s)
Visibility: 6 or more miles 10+ km)
Ceiling: unknown
Clouds: missing
Weather: NSW  (no significant weather)
Text: TEMPO 2214/2224 4000 TSRA SCT023 FEW036CB
Forecast period: 1400 UTC 22 April 2019 to 0000 UTC 23 April 2019
Forecast type: TEMPORARY: The following changes expected for less than half the time period
Visibility: 2.49 miles (4.01 km)
Ceiling: at least 12,000 feet AGL
Clouds: scattered clouds at 2300 feet AGL
few clouds at 3600 feet AGL
Weather: TSRA  (rain associated with thunderstorm(s))